Time;durP1;ratioP1;P1;durP2;ratioP2;P2;SDS_P1;SDS_P2;PMS_P1;PMS_P2;Temp;Humidity;BMP_temperature;BMP_pressure;BME280_temperature;BME280_humidity;BME280_pressure;Samples;Min_cycle;Max_cycle;Signal;HPM_P1;HPM_P2
2023/06/29 00:01:07;;;;;;;34.00;19.90;;;;;;;-144.87;100.00;61487.56;4968961;28;20047;-71
2023/06/29 00:03:34;;;;;;;28.13;19.35;;;;;;;-144.87;100.00;61487.56;4967149;28;20042;-71
2023/06/29 00:06:01;;;;;;;29.08;20.15;;;;;;;-144.87;100.00;61487.56;4967006;28;20047;-70
2023/06/29 00:08:29;;;;;;;29.58;18.77;;;;;;;-144.87;100.00;61487.56;4973563;28;20041;-70
2023/06/29 00:10:56;;;;;;;36.58;18.85;;;;;;;-144.87;100.00;61487.56;4953214;29;20032;-70
2023/06/29 00:13:23;;;;;;;26.98;18.35;;;;;;;-144.87;100.00;61487.56;4965994;28;20750;-70
2023/06/29 00:15:49;;;;;;;27.48;18.15;;;;;;;-144.87;100.00;61487.56;4973118;28;20042;-70
2023/06/29 00:18:16;;;;;;;32.40;18.60;;;;;;;-144.87;100.00;61487.56;4986269;28;20034;-70
2023/06/29 00:20:43;;;;;;;36.03;20.95;;;;;;;-144.87;100.00;61487.56;4972242;28;20042;-70
2023/06/29 00:23:09;;;;;;;28.27;18.65;;;;;;;-144.87;100.00;61487.56;4968105;28;20118;-70
2023/06/29 00:25:36;;;;;;;27.17;18.15;;;;;;;-144.87;100.00;61487.56;4937858;29;20035;-70
2023/06/29 00:28:02;;;;;;;34.45;19.42;;;;;;;-144.87;100.00;61487.56;4970041;28;20046;-70
2023/06/29 00:30:29;;;;;;;28.65;18.60;;;;;;;-144.87;100.00;61487.56;4972749;28;20125;-70
2023/06/29 00:32:55;;;;;;;30.58;19.17;;;;;;;-144.87;100.00;61487.56;4969787;28;20063;-70
2023/06/29 00:35:21;;;;;;;29.98;18.85;;;;;;;-144.87;100.00;61487.56;4972167;28;20138;-69
2023/06/29 00:37:48;;;;;;;33.88;19.67;;;;;;;-144.87;100.00;61487.56;4971167;28;20476;-70
2023/06/29 00:40:15;;;;;;;33.42;20.95;;;;;;;-144.87;100.00;61487.56;4971858;28;20045;-69
2023/06/29 00:42:42;;;;;;;30.08;20.63;;;;;;;-144.87;100.00;61487.56;4968783;28;20047;-70
2023/06/29 00:45:10;;;;;;;29.88;19.08;;;;;;;-144.87;100.00;61487.56;4939332;28;20042;-71
2023/06/29 00:47:37;;;;;;;33.42;20.50;;;;;;;-144.87;100.00;61487.56;4954996;28;20105;-70
2023/06/29 00:50:04;;;;;;;28.48;19.63;;;;;;;-144.87;100.00;61487.56;4972306;28;20121;-71
2023/06/29 00:52:31;;;;;;;31.00;20.35;;;;;;;-144.87;100.00;61487.56;4952314;29;20690;-69
2023/06/29 00:54:58;;;;;;;34.28;20.42;;;;;;;-144.87;100.00;61487.56;4953457;29;20078;-69
2023/06/29 00:57:25;;;;;;;30.67;20.17;;;;;;;-144.87;100.00;61487.56;4966609;28;20094;-70
2023/06/29 00:59:52;;;;;;;29.15;19.25;;;;;;;-144.87;100.00;61487.56;4970748;28;20035;-70
2023/06/29 01:02:18;;;;;;;36.08;21.73;;;;;;;-144.87;100.00;61487.56;4971153;28;20070;-71
2023/06/29 01:04:45;;;;;;;31.38;20.98;;;;;;;-144.87;100.00;61487.56;4954492;28;20436;-70
2023/06/29 01:07:31;;;;;;;33.40;20.80;;;;;;;-144.87;100.00;61487.56;4971119;28;20105;-70
2023/06/29 01:09:59;;;;;;;30.17;19.92;;;;;;;-144.87;100.00;61487.56;4972117;28;20122;-70
2023/06/29 01:12:26;;;;;;;36.53;20.52;;;;;;;-144.87;100.00;61487.56;4965947;28;20035;-69
2023/06/29 01:14:53;;;;;;;32.92;20.25;;;;;;;-144.87;100.00;61487.56;4936911;29;20047;-70
2023/06/29 01:17:25;;;;;;;31.42;20.10;;;;;;;-144.87;100.00;61487.56;4945398;28;20027;-70
2023/06/29 01:19:52;;;;;;;31.73;19.98;;;;;;;-144.87;100.00;61487.56;4950069;28;20042;-69
2023/06/29 01:22:24;;;;;;;32.72;20.08;;;;;;;-144.87;100.00;61487.56;4953923;28;20028;-70
2023/06/29 01:24:50;;;;;;;34.42;21.00;;;;;;;-144.87;100.00;61487.56;4955349;28;20159;-70
2023/06/29 01:27:17;;;;;;;33.15;20.77;;;;;;;-144.87;100.00;61487.56;4954401;28;20019;-70
2023/06/29 01:29:43;;;;;;;33.85;20.73;;;;;;;-144.87;100.00;61487.56;4967912;28;20484;-70
2023/06/29 01:32:10;;;;;;;32.83;20.13;;;;;;;-144.87;100.00;61487.56;4964507;28;20089;-71
2023/06/29 01:34:37;;;;;;;29.58;20.05;;;;;;;-144.87;100.00;61487.56;4970799;28;20137;-70
2023/06/29 01:37:10;;;;;;;31.27;21.13;;;;;;;-144.87;100.00;61487.56;4936244;28;20118;-70
2023/06/29 01:39:44;;;;;;;33.85;21.33;;;;;;;-144.87;100.00;61487.56;4970544;28;20452;-69
2023/06/29 01:42:12;;;;;;;34.08;20.95;;;;;;;-144.87;100.00;61487.56;4969066;28;20122;-69
2023/06/29 01:44:38;;;;;;;35.28;22.27;;;;;;;-144.87;100.00;61487.56;4963582;28;20145;-69
2023/06/29 01:47:08;;;;;;;36.65;21.27;;;;;;;-144.87;100.00;61487.56;4971315;28;20039;-70
2023/06/29 01:49:35;;;;;;;40.15;22.27;;;;;;;-144.87;100.00;61487.56;4971758;28;20149;-69
2023/06/29 01:52:02;;;;;;;33.03;21.38;;;;;;;-144.87;100.00;61487.56;4970282;28;20128;-70
2023/06/29 01:54:28;;;;;;;39.58;20.92;;;;;;;-144.87;100.00;61487.56;4964898;28;20045;-70
2023/06/29 01:56:54;;;;;;;39.05;22.10;;;;;;;-144.87;100.00;61487.56;4966269;28;20089;-69
2023/06/29 01:59:21;;;;;;;36.35;21.13;;;;;;;-144.87;100.00;61487.56;4967382;28;20039;-70
2023/06/29 02:01:48;;;;;;;38.38;22.75;;;;;;;-144.87;100.00;61487.56;4952045;28;20043;-69
2023/06/29 02:04:14;;;;;;;35.10;22.75;;;;;;;-144.87;100.00;61487.56;4969141;28;20046;-70
2023/06/29 02:06:40;;;;;;;39.35;22.48;;;;;;;-144.87;100.00;61487.56;4954390;28;20133;-69
2023/06/29 02:09:08;;;;;;;35.40;22.23;;;;;;;-144.87;100.00;61487.56;4969859;28;20127;-70
2023/06/29 02:11:38;;;;;;;39.20;23.08;;;;;;;-144.87;100.00;61487.56;4970367;28;20706;-70
2023/06/29 02:14:04;;;;;;;31.83;21.92;;;;;;;-144.87;100.00;61487.56;4970377;28;20137;-69
2023/06/29 02:16:30;;;;;;;37.90;22.65;;;;;;;-144.87;100.00;61487.56;4950180;29;20086;-71
2023/06/29 02:18:56;;;;;;;36.17;22.67;;;;;;;-144.87;100.00;61487.56;4952770;29;20414;-69
2023/06/29 02:21:23;;;;;;;34.60;22.70;;;;;;;-144.87;100.00;61487.56;4955804;28;20097;-69
2023/06/29 02:23:49;;;;;;;32.67;22.35;;;;;;;-144.87;100.00;61487.56;4971841;28;20050;-69
2023/06/29 02:26:15;;;;;;;39.13;22.38;;;;;;;-144.87;100.00;61487.56;4966622;28;20416;-70
2023/06/29 02:28:41;;;;;;;40.40;23.08;;;;;;;-144.87;100.00;61487.56;4967339;28;20043;-70
2023/06/29 02:31:08;;;;;;;37.53;22.60;;;;;;;-144.87;100.00;61487.56;4952771;28;20039;-70
2023/06/29 02:33:34;;;;;;;35.70;23.50;;;;;;;-144.87;100.00;61487.56;4950410;29;20043;-70
2023/06/29 02:36:01;;;;;;;41.15;24.85;;;;;;;-144.87;100.00;61487.56;4965311;28;20039;-70
2023/06/29 02:38:27;;;;;;;40.58;24.35;;;;;;;-144.87;100.00;61487.56;4969715;28;20113;-70
2023/06/29 02:40:53;;;;;;;41.05;25.08;;;;;;;-144.87;100.00;61487.56;4966958;28;20035;-69
2023/06/29 02:43:20;;;;;;;43.97;25.67;;;;;;;-144.87;100.00;61487.56;4970814;28;20382;-69
2023/06/29 02:45:46;;;;;;;40.83;24.98;;;;;;;-144.87;100.00;61487.56;4970467;28;20424;-70
2023/06/29 02:48:12;;;;;;;39.75;26.35;;;;;;;-144.87;100.00;61487.56;4966667;28;20066;-69
2023/06/29 02:50:39;;;;;;;41.17;25.85;;;;;;;-144.87;100.00;61487.56;4969799;28;20145;-69
2023/06/29 02:53:05;;;;;;;44.28;26.90;;;;;;;-144.87;100.00;61487.56;4966379;28;20039;-70
2023/06/29 02:55:32;;;;;;;45.05;27.98;;;;;;;-144.87;100.00;61487.56;4962382;28;20043;-70
2023/06/29 02:57:59;;;;;;;46.33;27.48;;;;;;;-144.87;100.00;61487.56;4969357;28;20043;-70
2023/06/29 03:00:25;;;;;;;45.42;26.88;;;;;;;-144.87;100.00;61487.56;4969583;28;20492;-70
2023/06/29 03:02:51;;;;;;;42.35;27.70;;;;;;;-144.87;100.00;61487.56;4970151;28;20492;-70
2023/06/29 03:05:18;;;;;;;46.35;28.02;;;;;;;-144.87;100.00;61487.56;4935651;29;20054;-70
2023/06/29 03:07:44;;;;;;;42.55;27.90;;;;;;;-144.87;100.00;61487.56;4929702;29;20046;-70
2023/06/29 03:10:10;;;;;;;42.78;27.83;;;;;;;-144.87;100.00;61487.56;4930563;29;20131;-69
2023/06/29 03:12:37;;;;;;;47.65;29.48;;;;;;;-144.87;100.00;61487.56;4945795;29;20051;-69
2023/06/29 03:15:03;;;;;;;47.38;29.02;;;;;;;-144.87;100.00;61487.56;4927657;29;20043;-69
2023/06/29 03:17:30;;;;;;;47.47;29.20;;;;;;;-144.87;100.00;61487.56;4936190;29;20061;-70
2023/06/29 03:19:56;;;;;;;46.47;29.33;;;;;;;-144.87;100.00;61487.56;4947321;29;20039;-70
2023/06/29 03:22:24;;;;;;;50.22;27.70;;;;;;;-144.87;100.00;61487.56;4946765;29;20050;-70
2023/06/29 03:24:50;;;;;;;61.35;28.67;;;;;;;-144.87;100.00;61487.56;4950287;28;20027;-70
2023/06/29 03:27:16;;;;;;;45.53;27.55;;;;;;;-144.87;100.00;61487.56;4931108;29;20386;-69
2023/06/29 03:29:42;;;;;;;50.05;28.58;;;;;;;-144.87;100.00;61487.56;4944232;29;20401;-70
2023/06/29 03:32:09;;;;;;;49.08;29.42;;;;;;;-144.87;100.00;61487.56;4929102;29;20489;-70
2023/06/29 03:34:36;;;;;;;54.13;30.67;;;;;;;-144.87;100.00;61487.56;4952045;29;21002;-70
2023/06/29 03:37:02;;;;;;;52.40;30.95;;;;;;;-144.87;100.00;61487.56;4940334;29;20043;-71
2023/06/29 03:39:29;;;;;;;57.35;32.95;;;;;;;-144.87;100.00;61487.56;4955737;28;20046;-70
2023/06/29 03:41:55;;;;;;;58.00;32.72;;;;;;;-144.87;100.00;61487.56;4953937;29;20039;-70
2023/06/29 03:44:22;;;;;;;64.57;34.25;;;;;;;-144.87;100.00;61487.56;4954003;28;20043;-71
2023/06/29 03:46:48;;;;;;;57.10;34.03;;;;;;;-144.87;100.00;61487.56;4937468;29;20049;-70
2023/06/29 03:49:14;;;;;;;56.22;34.63;;;;;;;-144.87;100.00;61487.56;4934638;29;20038;-72
2023/06/29 03:51:41;;;;;;;70.72;35.13;;;;;;;-144.87;100.00;61487.56;4955116;29;20039;-71
2023/06/29 03:54:07;;;;;;;59.00;35.13;;;;;;;-144.87;100.00;61487.56;4955202;29;20051;-70
2023/06/29 03:56:33;;;;;;;60.22;35.38;;;;;;;-144.87;100.00;61487.56;4922137;29;20424;-70
2023/06/29 03:59:00;;;;;;;66.78;36.97;;;;;;;-144.87;100.00;61487.56;4936966;29;20046;-71
2023/06/29 04:01:26;;;;;;;62.28;34.67;;;;;;;-144.87;100.00;61487.56;4955656;29;20035;-70
2023/06/29 04:03:53;;;;;;;73.05;36.85;;;;;;;-144.87;100.00;61487.56;4960069;28;20059;-71
2023/06/29 04:06:19;;;;;;;67.28;35.95;;;;;;;-144.87;100.00;61487.56;4972662;28;20050;-71
2023/06/29 04:08:46;;;;;;;58.20;34.97;;;;;;;-144.87;100.00;61487.56;4973170;28;20038;-71
2023/06/29 04:11:12;;;;;;;60.00;35.25;;;;;;;-144.87;100.00;61487.56;4971309;28;20094;-71
2023/06/29 04:13:38;;;;;;;63.10;35.05;;;;;;;-144.87;100.00;61487.56;4972685;28;20118;-71
2023/06/29 04:16:05;;;;;;;60.28;33.55;;;;;;;-144.87;100.00;61487.56;4973871;28;20035;-70
2023/06/29 04:18:31;;;;;;;62.75;34.55;;;;;;;-144.87;100.00;61487.56;4974474;28;20057;-70
2023/06/29 04:20:57;;;;;;;58.40;33.72;;;;;;;-144.87;100.00;61487.56;4971339;28;20042;-70
2023/06/29 04:23:23;;;;;;;57.30;32.70;;;;;;;-144.87;100.00;61487.56;4974001;28;20039;-72
2023/06/29 04:25:50;;;;;;;62.83;34.38;;;;;;;-144.87;100.00;61487.56;4971813;28;20504;-72
2023/06/29 04:28:16;;;;;;;59.63;33.47;;;;;;;-144.87;100.00;61487.56;4972815;28;20050;-70
2023/06/29 04:30:43;;;;;;;52.15;31.27;;;;;;;-144.87;100.00;61487.56;4972502;28;20045;-69
2023/06/29 04:33:10;;;;;;;56.33;33.78;;;;;;;-144.87;100.00;61487.56;4972441;28;20058;-70
2023/06/29 04:35:43;;;;;;;56.22;32.28;;;;;;;-144.87;100.00;61487.56;4972514;28;20118;-71
2023/06/29 04:38:10;;;;;;;58.72;32.45;;;;;;;-144.87;100.00;61487.56;4968482;28;20080;-71
2023/06/29 04:40:37;;;;;;;57.22;31.23;;;;;;;-144.87;100.00;61487.56;4953918;28;20054;-71
2023/06/29 04:43:06;;;;;;;55.50;31.80;;;;;;;-144.87;100.00;61487.56;4970673;28;20046;-71
2023/06/29 04:45:33;;;;;;;55.65;31.23;;;;;;;-144.87;100.00;61487.56;4971246;28;20403;-72
2023/06/29 04:48:00;;;;;;;60.25;31.83;;;;;;;-144.87;100.00;61487.56;4968934;28;20046;-71
2023/06/29 04:50:31;;;;;;;51.15;31.73;;;;;;;-144.87;100.00;61487.56;4970394;28;20054;-71
2023/06/29 04:52:58;;;;;;;56.95;32.28;;;;;;;-144.87;100.00;61487.56;4952958;29;20122;-71
2023/06/29 04:55:25;;;;;;;54.80;31.92;;;;;;;-144.87;100.00;61487.56;4953412;29;20034;-70
2023/06/29 04:57:52;;;;;;;55.88;31.77;;;;;;;-144.87;100.00;61487.56;4967618;28;20046;-71
2023/06/29 05:00:19;;;;;;;57.15;31.80;;;;;;;-144.87;100.00;61487.56;4969297;28;20034;-71
2023/06/29 05:02:46;;;;;;;61.22;32.70;;;;;;;-144.87;100.00;61487.56;4987243;28;20138;-70
2023/06/29 05:05:13;;;;;;;54.42;32.40;;;;;;;-144.87;100.00;61487.56;4963953;28;20081;-71
2023/06/29 05:07:41;;;;;;;54.17;30.80;;;;;;;-144.87;100.00;61487.56;4979938;28;20047;-71
2023/06/29 05:10:07;;;;;;;51.63;30.30;;;;;;;-144.87;100.00;61487.56;4965235;28;20514;-72
2023/06/29 05:12:34;;;;;;;54.88;31.75;;;;;;;-144.87;100.00;61487.56;4973380;28;20125;-72
2023/06/29 05:15:00;;;;;;;55.95;31.35;;;;;;;-144.87;100.00;61487.56;4968079;28;20031;-72
2023/06/29 05:17:26;;;;;;;53.28;31.30;;;;;;;-144.87;100.00;61487.56;4969257;28;20038;-71
2023/06/29 05:19:52;;;;;;;53.15;30.17;;;;;;;-144.87;100.00;61487.56;4971415;28;20048;-71
2023/06/29 05:22:19;;;;;;;53.83;30.80;;;;;;;-144.87;100.00;61487.56;4972423;28;20042;-71
2023/06/29 05:24:45;;;;;;;52.80;30.65;;;;;;;-144.87;100.00;61487.56;4950769;29;20126;-72
2023/06/29 05:27:11;;;;;;;56.25;30.75;;;;;;;-144.87;100.00;61487.56;4952694;29;20031;-71
2023/06/29 05:29:38;;;;;;;56.33;31.00;;;;;;;-144.87;100.00;61487.56;4952364;28;20459;-71
2023/06/29 05:32:05;;;;;;;49.47;29.23;;;;;;;-144.87;100.00;61487.56;4972582;28;20038;-71
2023/06/29 05:34:31;;;;;;;47.55;28.92;;;;;;;-144.87;100.00;61487.56;4968268;28;20156;-71
2023/06/29 05:36:57;;;;;;;50.78;30.13;;;;;;;-144.87;100.00;61487.56;4974772;28;20038;-70
2023/06/29 05:39:23;;;;;;;50.60;29.23;;;;;;;-144.87;100.00;61487.56;4969217;28;20035;-70
2023/06/29 05:41:50;;;;;;;49.65;31.65;;;;;;;-144.87;100.00;61487.56;4971229;28;20038;-70
2023/06/29 05:44:16;;;;;;;54.05;31.40;;;;;;;-144.87;100.00;61487.56;4971033;28;20061;-69
2023/06/29 05:46:42;;;;;;;47.70;30.67;;;;;;;-144.87;100.00;61487.56;4971610;28;20479;-69
2023/06/29 05:49:09;;;;;;;52.40;31.42;;;;;;;-144.87;100.00;61487.56;4970576;28;20049;-70
2023/06/29 05:51:37;;;;;;;54.33;32.47;;;;;;;-144.87;100.00;61487.56;4965528;28;20027;-70
2023/06/29 05:54:04;;;;;;;55.92;31.80;;;;;;;-144.87;100.00;61487.56;4972070;28;20066;-70
2023/06/29 05:56:31;;;;;;;52.25;30.80;;;;;;;-144.87;100.00;61487.56;4969951;28;20126;-71
2023/06/29 05:58:58;;;;;;;52.05;30.73;;;;;;;-144.87;100.00;61487.56;4969579;28;20031;-70
2023/06/29 06:01:24;;;;;;;52.08;31.88;;;;;;;-144.87;100.00;61487.56;4969698;28;20031;-71
2023/06/29 06:03:50;;;;;;;51.85;31.20;;;;;;;-144.87;100.00;61487.56;4970481;28;20045;-71
2023/06/29 06:06:16;;;;;;;54.30;32.72;;;;;;;-144.87;100.00;61487.56;4970576;28;20419;-71
2023/06/29 06:08:43;;;;;;;55.38;32.08;;;;;;;-144.87;100.00;61487.56;4970900;28;20077;-71
2023/06/29 06:11:09;;;;;;;45.38;30.23;;;;;;;-144.87;100.00;61487.56;4967644;28;20038;-71
2023/06/29 06:13:35;;;;;;;51.38;31.33;;;;;;;-144.87;100.00;61487.56;4966852;28;20105;-70
2023/06/29 06:16:02;;;;;;;50.13;31.48;;;;;;;-144.87;100.00;61487.56;4970679;28;20445;-70
2023/06/29 06:18:28;;;;;;;50.92;30.27;;;;;;;-144.87;100.00;61487.56;4937445;28;20047;-71
2023/06/29 06:20:54;;;;;;;51.10;31.20;;;;;;;-144.87;100.00;61487.56;4966153;28;20718;-70
2023/06/29 06:23:21;;;;;;;52.97;31.73;;;;;;;-144.87;100.00;61487.56;4948009;28;20511;-71
2023/06/29 06:25:47;;;;;;;47.80;29.85;;;;;;;-144.87;100.00;61487.56;4965907;28;20089;-71
2023/06/29 06:28:14;;;;;;;48.05;30.83;;;;;;;-144.87;100.00;61487.56;4965709;28;20118;-72
2023/06/29 06:30:40;;;;;;;43.67;29.50;;;;;;;-144.87;100.00;61487.56;4963863;28;20030;-72
2023/06/29 06:33:06;;;;;;;46.03;28.17;;;;;;;-144.87;100.00;61487.56;4982362;28;20065;-71
2023/06/29 06:35:32;;;;;;;52.35;30.13;;;;;;;-144.87;100.00;61487.56;4959739;28;20211;-71
2023/06/29 06:37:59;;;;;;;45.05;29.77;;;;;;;-144.87;100.00;61487.56;4968527;28;20112;-71
2023/06/29 06:40:25;;;;;;;53.03;29.58;;;;;;;-144.87;100.00;61487.56;4970001;28;20396;-71
2023/06/29 06:42:51;;;;;;;43.47;28.02;;;;;;;-144.87;100.00;61487.56;4971242;28;20041;-71
2023/06/29 06:45:18;;;;;;;48.05;30.58;;;;;;;-144.87;100.00;61487.56;4971074;28;20047;-70
2023/06/29 06:47:44;;;;;;;44.47;29.33;;;;;;;-144.87;100.00;61487.56;4970175;28;20063;-70
2023/06/29 06:50:11;;;;;;;48.35;31.50;;;;;;;-144.87;100.00;61487.56;4970579;28;20053;-70
2023/06/29 06:52:37;;;;;;;50.63;30.83;;;;;;;-144.87;100.00;61487.56;4970303;28;20051;-71
2023/06/29 06:55:05;;;;;;;49.50;30.00;;;;;;;-144.87;100.00;61487.56;4966834;28;20126;-71
2023/06/29 06:57:32;;;;;;;45.78;30.98;;;;;;;-144.87;100.00;61487.56;4965460;28;20117;-70
2023/06/29 06:59:58;;;;;;;48.97;30.45;;;;;;;-144.87;100.00;61487.56;4951411;28;20122;-71
2023/06/29 07:02:24;;;;;;;54.00;33.83;;;;;;;-144.87;100.00;61487.56;4964237;28;20034;-70
2023/06/29 07:04:51;;;;;;;50.67;31.90;;;;;;;-144.87;100.00;61487.56;4969214;28;20074;-71
2023/06/29 07:07:17;;;;;;;52.08;31.63;;;;;;;-144.87;100.00;61487.56;4969550;28;20046;-70
2023/06/29 07:09:44;;;;;;;54.00;32.40;;;;;;;-144.87;100.00;61487.56;4968399;28;20042;-71
2023/06/29 07:12:10;;;;;;;50.58;32.20;;;;;;;-144.87;100.00;61487.56;4969444;28;20500;-70
2023/06/29 07:14:37;;;;;;;50.65;31.92;;;;;;;-144.87;100.00;61487.56;4970501;28;20046;-70
2023/06/29 07:17:04;;;;;;;49.67;33.25;;;;;;;-144.87;100.00;61487.56;4969097;28;20042;-71
2023/06/29 07:19:30;;;;;;;53.95;32.30;;;;;;;-144.87;100.00;61487.56;4969574;28;20046;-70
2023/06/29 07:21:56;;;;;;;53.45;34.03;;;;;;;-144.87;100.00;61487.56;4958776;28;20105;-70
2023/06/29 07:24:22;;;;;;;51.65;33.47;;;;;;;-144.87;100.00;61487.56;4958891;28;20141;-70
2023/06/29 07:26:49;;;;;;;54.92;34.08;;;;;;;-144.87;100.00;61487.56;4968180;28;20039;-70
2023/06/29 07:29:15;;;;;;;53.55;33.08;;;;;;;-144.87;100.00;61487.56;4969352;28;20046;-71
2023/06/29 07:31:41;;;;;;;56.30;33.55;;;;;;;-144.87;100.00;61487.56;4970901;28;20074;-71
2023/06/29 07:34:07;;;;;;;52.88;34.60;;;;;;;-144.87;100.00;61487.56;4971027;28;20035;-71
2023/06/29 07:36:34;;;;;;;52.72;34.38;;;;;;;-144.87;100.00;61487.56;4970459;28;20074;-71
2023/06/29 07:39:00;;;;;;;53.85;34.17;;;;;;;-144.87;100.00;61487.56;4966935;28;20042;-71
2023/06/29 07:41:26;;;;;;;56.60;35.33;;;;;;;-144.87;100.00;61487.56;4968113;28;20035;-71
2023/06/29 07:43:54;;;;;;;54.63;35.55;;;;;;;-144.87;100.00;61487.56;4969483;28;20046;-69
2023/06/29 07:46:21;;;;;;;55.30;35.65;;;;;;;-144.87;100.00;61487.56;4952792;28;20070;-71
2023/06/29 07:48:48;;;;;;;57.63;35.90;;;;;;;-144.87;100.00;61487.56;4970645;28;20041;-70
2023/06/29 07:51:15;;;;;;;58.00;36.88;;;;;;;-144.87;100.00;61487.56;4968946;28;20051;-71
2023/06/29 07:53:41;;;;;;;55.75;35.95;;;;;;;-144.87;100.00;61487.56;4969278;28;20388;-70
2023/06/29 07:56:08;;;;;;;52.35;36.30;;;;;;;-144.87;100.00;61487.56;4970395;28;20034;-70
2023/06/29 07:58:35;;;;;;;54.85;36.05;;;;;;;-144.87;100.00;61487.56;4965252;28;20030;-70
2023/06/29 08:01:01;;;;;;;54.53;35.47;;;;;;;-144.87;100.00;61487.56;4969338;28;20038;-69
2023/06/29 08:03:29;;;;;;;52.90;35.85;;;;;;;-144.87;100.00;61487.56;4969362;28;20109;-71
2023/06/29 08:05:55;;;;;;;49.90;34.40;;;;;;;-144.87;100.00;61487.56;4971194;28;20093;-70
2023/06/29 08:08:22;;;;;;;49.88;33.45;;;;;;;-144.87;100.00;61487.56;4968993;28;20041;-70
2023/06/29 08:10:48;;;;;;;46.03;32.00;;;;;;;-144.87;100.00;61487.56;4969494;28;20450;-71
2023/06/29 08:13:16;;;;;;;50.90;33.75;;;;;;;-144.87;100.00;61487.56;4970369;28;20408;-71
2023/06/29 08:15:42;;;;;;;47.40;33.15;;;;;;;-144.87;100.00;61487.56;4970821;28;20047;-71
2023/06/29 08:18:09;;;;;;;51.85;34.35;;;;;;;-144.87;100.00;61487.56;4967414;28;20034;-70
2023/06/29 08:20:35;;;;;;;54.42;34.05;;;;;;;-144.87;100.00;61487.56;4973708;28;20046;-71
2023/06/29 08:23:01;;;;;;;50.13;34.47;;;;;;;-144.87;100.00;61487.56;4974137;28;20170;-70
2023/06/29 08:25:27;;;;;;;49.75;34.17;;;;;;;-144.87;100.00;61487.56;4972045;28;20050;-70
2023/06/29 08:27:54;;;;;;;50.90;33.30;;;;;;;-144.87;100.00;61487.56;4970359;28;20401;-71
2023/06/29 08:30:21;;;;;;;48.13;34.53;;;;;;;-144.87;100.00;61487.56;4973800;28;20047;-71
2023/06/29 08:32:48;;;;;;;51.63;34.22;;;;;;;-144.87;100.00;61487.56;4974073;28;20062;-69
2023/06/29 08:35:15;;;;;;;50.75;33.22;;;;;;;-144.87;100.00;61487.56;4972857;28;20098;-71
2023/06/29 08:37:41;;;;;;;52.03;34.70;;;;;;;-144.87;100.00;61487.56;4974129;28;20045;-71
2023/06/29 08:40:08;;;;;;;47.72;33.72;;;;;;;-144.87;100.00;61487.56;4968265;28;20125;-71
2023/06/29 08:42:35;;;;;;;49.45;33.30;;;;;;;-144.87;100.00;61487.56;4960413;28;20086;-71
2023/06/29 08:45:01;;;;;;;43.83;32.45;;;;;;;-144.87;100.00;61487.56;4971778;28;20118;-71
2023/06/29 08:47:30;;;;;;;46.30;32.00;;;;;;;-144.87;100.00;61487.56;4973725;28;20544;-71
2023/06/29 08:49:57;;;;;;;43.72;31.38;;;;;;;-144.87;100.00;61487.56;4987843;28;20077;-71
2023/06/29 08:52:26;;;;;;;49.53;34.53;;;;;;;-144.87;100.00;61487.56;4972321;28;20389;-71
2023/06/29 08:54:52;;;;;;;47.13;33.13;;;;;;;-144.87;100.00;61487.56;4973160;28;20046;-70
2023/06/29 08:57:19;;;;;;;44.88;33.22;;;;;;;-144.87;100.00;61487.56;4952377;29;20043;-70
2023/06/29 08:59:49;;;;;;;40.97;30.63;;;;;;;-144.87;100.00;61487.56;4969838;28;20038;-71
2023/06/29 09:02:16;;;;;;;45.17;32.13;;;;;;;-144.87;100.00;61487.56;4970786;28;20038;-71
2023/06/29 09:04:44;;;;;;;44.13;31.77;;;;;;;-144.87;100.00;61487.56;4955870;28;20476;-72
2023/06/29 09:07:12;;;;;;;41.67;30.40;;;;;;;-144.87;100.00;61487.56;4972777;28;20035;-70
2023/06/29 09:09:38;;;;;;;43.30;30.08;;;;;;;-144.87;100.00;61487.56;4972244;28;20373;-70
2023/06/29 09:12:05;;;;;;;44.80;32.13;;;;;;;-144.87;100.00;61487.56;4972906;28;20039;-70
2023/06/29 09:14:35;;;;;;;43.55;31.83;;;;;;;-144.87;100.00;61487.56;4971470;28;20078;-69
2023/06/29 09:17:02;;;;;;;40.35;30.42;;;;;;;-144.87;100.00;61487.56;4971783;28;20035;-72
2023/06/29 09:19:30;;;;;;;44.38;32.13;;;;;;;-144.87;100.00;61487.56;4972059;28;20118;-71
2023/06/29 09:21:58;;;;;;;40.38;29.48;;;;;;;-144.87;100.00;61487.56;4955649;28;20062;-71
2023/06/29 09:24:29;;;;;;;41.63;30.17;;;;;;;-144.87;100.00;61487.56;4972047;28;20046;-70
2023/06/29 09:26:56;;;;;;;44.42;29.48;;;;;;;-144.87;100.00;61487.56;4973505;28;20079;-72
2023/06/29 09:29:23;;;;;;;40.90;29.92;;;;;;;-144.87;100.00;61487.56;4971973;28;20026;-70
2023/06/29 09:31:57;;;;;;;40.65;30.08;;;;;;;-144.87;100.00;61487.56;4970621;28;20141;-70
2023/06/29 09:34:26;;;;;;;38.83;28.65;;;;;;;-144.87;100.00;61487.56;4969085;28;20090;-70
2023/06/29 09:36:52;;;;;;;40.00;29.58;;;;;;;-144.87;100.00;61487.56;4971563;28;20125;-69
2023/06/29 09:39:19;;;;;;;38.15;27.67;;;;;;;-144.87;100.00;61487.56;4966613;28;20181;-71
2023/06/29 09:41:56;;;;;;;37.33;28.58;;;;;;;-144.87;100.00;61487.56;4970971;28;20250;-69
2023/06/29 09:44:26;;;;;;;41.58;28.17;;;;;;;-144.87;100.00;61487.56;4971390;28;20534;-71
2023/06/29 09:47:02;;;;;;;43.33;29.98;;;;;;;-144.87;100.00;61487.56;4971201;28;20062;-70
2023/06/29 09:49:29;;;;;;;40.75;30.00;;;;;;;-144.87;100.00;61487.56;4968247;28;20111;-70
2023/06/29 09:52:03;;;;;;;38.97;27.75;;;;;;;-144.87;100.00;61487.56;4964220;28;20039;-71
2023/06/29 09:54:34;;;;;;;44.03;31.00;;;;;;;-144.87;100.00;61487.56;4968727;28;20074;-71
2023/06/29 09:57:02;;;;;;;38.13;28.75;;;;;;;-144.87;100.00;61487.56;4970405;28;20518;-71
2023/06/29 09:59:30;;;;;;;39.88;29.73;;;;;;;-144.87;100.00;61487.56;4959481;28;20353;-71
2023/06/29 10:01:57;;;;;;;42.30;30.45;;;;;;;-144.87;100.00;61487.56;4963673;28;20116;-70
2023/06/29 10:04:24;;;;;;;41.58;29.42;;;;;;;-144.87;100.00;61487.56;4968601;28;20441;-71
2023/06/29 10:06:56;;;;;;;39.88;28.25;;;;;;;-144.87;100.00;61487.56;4954507;28;20066;-69
2023/06/29 10:09:23;;;;;;;39.90;28.48;;;;;;;-144.87;100.00;61487.56;4971411;28;20510;-71
2023/06/29 10:11:53;;;;;;;42.55;27.83;;;;;;;-144.87;100.00;61487.56;4970613;28;20611;-71
2023/06/29 10:14:21;;;;;;;37.47;26.90;;;;;;;-144.87;100.00;61487.56;4969608;28;20101;-69
2023/06/29 10:16:52;;;;;;;38.55;25.63;;;;;;;-144.87;100.00;61487.56;4970404;28;20070;-70
2023/06/29 10:19:23;;;;;;;43.35;26.38;;;;;;;-144.87;100.00;61487.56;4971538;28;20054;-70
2023/06/29 10:21:59;;;;;;;36.08;26.75;;;;;;;-144.87;100.00;61487.56;4970323;28;20035;-70
2023/06/29 10:24:32;;;;;;;36.08;26.35;;;;;;;-144.87;100.00;61487.56;4967357;28;20054;-71
2023/06/29 10:26:59;;;;;;;36.70;27.25;;;;;;;-144.87;100.00;61487.56;4960637;28;20065;-71
2023/06/29 10:29:25;;;;;;;39.13;27.83;;;;;;;-144.87;100.00;61487.56;4970087;28;20099;-71
2023/06/29 10:31:59;;;;;;;38.78;28.55;;;;;;;-144.87;100.00;61487.56;4970267;28;20373;-70
2023/06/29 10:34:26;;;;;;;41.08;29.17;;;;;;;-144.87;100.00;61487.56;4970841;28;20043;-70
2023/06/29 10:36:54;;;;;;;42.30;29.92;;;;;;;-144.87;100.00;61487.56;4968932;28;20082;-70
2023/06/29 10:39:44;;;;;;;40.05;30.48;;;;;;;-144.87;100.00;61487.56;4970825;28;20033;-70
2023/06/29 10:42:12;;;;;;;40.30;30.77;;;;;;;-144.87;100.00;61487.56;4959073;28;20082;-70
2023/06/29 10:44:38;;;;;;;43.00;29.95;;;;;;;-144.87;100.00;61487.56;4970248;28;20042;-69
2023/06/29 10:47:05;;;;;;;46.75;28.27;;;;;;;-144.87;100.00;61487.56;4970909;28;20058;-70
2023/06/29 10:49:32;;;;;;;41.28;28.05;;;;;;;-144.87;100.00;61487.56;4969942;28;20057;-71
2023/06/29 10:52:03;;;;;;;39.53;26.25;;;;;;;-144.87;100.00;61487.56;4986087;28;20043;-70
2023/06/29 10:54:29;;;;;;;39.08;27.55;;;;;;;-144.87;100.00;61487.56;4971180;28;20039;-70